Time;durP1;ratioP1;P1;durP2;ratioP2;P2;SDS_P1;SDS_P2;PMS_P1;PMS_P2;Temp;Humidity;BMP_temperature;BMP_pressure;BME280_temperature;BME280_humidity;BME280_pressure;Samples;Min_cycle;Max_cycle;Signal;HPM_P1;HPM_P2
2022/05/06 00:00:11;;;;;;;8.60;6.07;;;;;;;;;;4938373;29;20509;-81
2022/05/06 00:02:36;;;;;;;10.95;6.25;;;;;;;;;;4955558;29;20439;-81
2022/05/06 00:05:02;;;;;;;9.48;6.50;;;;;;;;;;4970914;28;20035;-82
2022/05/06 00:07:28;;;;;;;10.05;6.40;;;;;;;;;;4954583;29;20446;-81
2022/05/06 00:09:53;;;;;;;9.15;5.40;;;;;;;;;;4938359;29;20046;-81
2022/05/06 00:12:19;;;;;;;11.80;6.18;;;;;;;;;;4954245;29;20182;-81
2022/05/06 00:14:45;;;;;;;9.60;6.10;;;;;;;;;;4937943;28;20458;-81
2022/05/06 00:17:11;;;;;;;8.15;6.32;;;;;;;;;;4953991;28;20049;-81
2022/05/06 00:19:36;;;;;;;8.85;5.80;;;;;;;;;;4937746;29;20031;-81
2022/05/06 00:22:02;;;;;;;9.52;6.13;;;;;;;;;;4953957;29;20031;-81
2022/05/06 00:24:28;;;;;;;10.95;6.60;;;;;;;;;;4953658;29;20057;-81
2022/05/06 00:26:54;;;;;;;8.80;6.47;;;;;;;;;;4955119;29;20038;-81
2022/05/06 00:29:19;;;;;;;8.55;6.03;;;;;;;;;;4938038;29;20038;-81
2022/05/06 00:31:45;;;;;;;10.48;6.55;;;;;;;;;;4953493;29;20055;-81
2022/05/06 00:34:10;;;;;;;10.15;6.43;;;;;;;;;;4937629;29;20401;-81
2022/05/06 00:36:36;;;;;;;8.10;6.57;;;;;;;;;;4953750;29;20034;-81
2022/05/06 00:39:02;;;;;;;12.73;6.40;;;;;;;;;;4954864;29;20031;-81
2022/05/06 00:41:27;;;;;;;11.07;6.80;;;;;;;;;;4953599;29;20031;-81
2022/05/06 00:43:53;;;;;;;10.02;6.63;;;;;;;;;;4937331;29;20470;-81
2022/05/06 00:46:18;;;;;;;10.88;6.78;;;;;;;;;;4953416;29;20124;-81
2022/05/06 00:48:46;;;;;;;9.98;6.60;;;;;;;;;;4953332;29;20035;-81
2022/05/06 00:51:12;;;;;;;12.95;7.25;;;;;;;;;;4954692;29;20035;-81
2022/05/06 00:53:39;;;;;;;9.15;6.82;;;;;;;;;;4921509;29;20042;-81
2022/05/06 00:56:05;;;;;;;12.52;7.63;;;;;;;;;;4937773;29;20367;-81
2022/05/06 00:58:32;;;;;;;10.77;6.80;;;;;;;;;;4921619;29;20038;-81
2022/05/06 01:00:57;;;;;;;12.18;7.35;;;;;;;;;;4953183;28;20061;-81
2022/05/06 01:03:22;;;;;;;15.88;7.75;;;;;;;;;;4937304;29;20042;-81
2022/05/06 01:05:51;;;;;;;13.85;7.50;;;;;;;;;;4937310;29;20042;-80
2022/05/06 01:08:16;;;;;;;14.23;7.80;;;;;;;;;;4953535;29;20034;-81
2022/05/06 01:10:42;;;;;;;11.98;8.20;;;;;;;;;;4954342;29;20019;-82
2022/05/06 01:13:08;;;;;;;13.75;8.45;;;;;;;;;;4937053;29;20046;-81
2022/05/06 01:15:33;;;;;;;13.13;7.85;;;;;;;;;;4968999;28;20115;-81
2022/05/06 01:17:59;;;;;;;10.10;6.65;;;;;;;;;;4955043;29;20066;-81
2022/05/06 01:20:25;;;;;;;10.77;7.50;;;;;;;;;;4936654;29;20027;-81
2022/05/06 01:22:58;;;;;;;10.50;6.88;;;;;;;;;;4952598;29;20078;-81
2022/05/06 01:25:25;;;;;;;9.40;6.17;;;;;;;;;;4952754;29;20058;-81
2022/05/06 01:28:04;;;;;;;9.20;6.65;;;;;;;;;;4952665;29;20070;-81
2022/05/06 01:30:30;;;;;;;8.95;6.22;;;;;;;;;;4954082;29;20096;-81
2022/05/06 01:32:56;;;;;;;10.02;6.45;;;;;;;;;;4952709;29;20031;-81
2022/05/06 01:35:22;;;;;;;9.48;6.50;;;;;;;;;;4952807;29;20042;-81
2022/05/06 01:37:50;;;;;;;8.57;6.40;;;;;;;;;;4952498;29;20133;-81
2022/05/06 01:40:16;;;;;;;9.20;6.50;;;;;;;;;;4952478;29;20420;-81
2022/05/06 01:42:42;;;;;;;8.70;6.22;;;;;;;;;;4952397;29;20054;-81
2022/05/06 01:45:12;;;;;;;8.10;5.80;;;;;;;;;;4921020;29;20027;-81
2022/05/06 01:47:38;;;;;;;9.13;5.93;;;;;;;;;;4952856;29;20039;-81
2022/05/06 01:50:05;;;;;;;9.77;6.47;;;;;;;;;;4952321;29;20130;-81
2022/05/06 01:52:31;;;;;;;8.75;6.05;;;;;;;;;;4953243;28;20443;-81
2022/05/06 01:54:56;;;;;;;8.50;6.13;;;;;;;;;;4952430;29;20415;-81
2022/05/06 01:57:22;;;;;;;7.78;5.70;;;;;;;;;;4936770;29;20054;-81
2022/05/06 01:59:47;;;;;;;9.70;6.10;;;;;;;;;;4953441;29;20540;-81
2022/05/06 02:02:13;;;;;;;7.22;5.60;;;;;;;;;;4953776;29;20035;-82
2022/05/06 02:07:22;;;;;;;;;;;;;;;;;;4953082;29;20089;-81
2022/05/06 02:09:47;;;;;;;6.30;4.38;;;;;;;;;;4952545;29;19914;-81
2022/05/06 02:12:13;;;;;;;7.47;5.30;;;;;;;;;;4952046;29;20035;-81
2022/05/06 02:14:38;;;;;;;8.23;5.65;;;;;;;;;;4953452;29;20031;-81
2022/05/06 02:17:04;;;;;;;7.60;5.50;;;;;;;;;;4952383;29;20047;-81
2022/05/06 02:19:29;;;;;;;6.68;5.32;;;;;;;;;;4953430;29;20035;-81
2022/05/06 02:21:55;;;;;;;5.78;4.57;;;;;;;;;;4952453;29;20046;-81
2022/05/06 02:24:20;;;;;;;5.97;4.70;;;;;;;;;;4952086;29;20042;-81
2022/05/06 02:26:45;;;;;;;5.90;4.60;;;;;;;;;;4952113;29;20082;-81
2022/05/06 02:29:11;;;;;;;5.93;4.65;;;;;;;;;;4953666;29;20093;-81
2022/05/06 02:34:20;;;;;;;6.47;4.85;;;;;;;;;;4953727;29;20106;-81
2022/05/06 02:36:46;;;;;;;5.82;4.57;;;;;;;;;;4936038;29;20478;-81
2022/05/06 02:39:11;;;;;;;6.03;4.53;;;;;;;;;;4951870;28;20023;-81
2022/05/06 02:41:37;;;;;;;5.40;4.28;;;;;;;;;;4952063;29;20035;-81
2022/05/06 02:44:04;;;;;;;5.53;4.07;;;;;;;;;;4968233;28;20505;-81
2022/05/06 02:46:31;;;;;;;5.80;4.40;;;;;;;;;;4952000;29;20061;-81
2022/05/06 02:48:56;;;;;;;5.95;4.45;;;;;;;;;;4952224;29;20467;-81
2022/05/06 02:51:22;;;;;;;5.78;4.20;;;;;;;;;;4951888;29;20055;-81
2022/05/06 02:53:47;;;;;;;5.70;4.28;;;;;;;;;;4951831;29;20028;-81
2022/05/06 02:56:13;;;;;;;4.90;4.10;;;;;;;;;;4935917;28;20042;-81
2022/05/06 02:58:38;;;;;;;4.43;3.70;;;;;;;;;;4954529;29;20023;-81
2022/05/06 03:01:03;;;;;;;5.78;4.07;;;;;;;;;;4947156;29;20066;-81
2022/05/06 03:03:33;;;;;;;5.25;4.10;;;;;;;;;;4955230;29;20110;-81
2022/05/06 03:05:59;;;;;;;4.72;4.07;;;;;;;;;;4955283;29;20035;-81
2022/05/06 03:08:24;;;;;;;5.57;4.18;;;;;;;;;;4939393;29;20470;-81
2022/05/06 03:10:49;;;;;;;5.32;4.28;;;;;;;;;;4956721;29;20027;-81
2022/05/06 03:13:15;;;;;;;4.57;3.72;;;;;;;;;;4939033;29;20086;-81
2022/05/06 03:15:42;;;;;;;4.13;3.72;;;;;;;;;;4923544;29;20031;-81
2022/05/06 03:18:08;;;;;;;5.85;4.10;;;;;;;;;;4923719;29;20039;-82
2022/05/06 03:20:33;;;;;;;4.32;3.72;;;;;;;;;;4956527;29;20023;-81
2022/05/06 03:22:59;;;;;;;6.53;3.50;;;;;;;;;;4956539;29;20035;-81
2022/05/06 03:25:25;;;;;;;4.00;3.50;;;;;;;;;;4956495;29;20122;-81
2022/05/06 03:27:59;;;;;;;7.22;3.78;;;;;;;;;;4955040;29;20118;-81
2022/05/06 03:30:26;;;;;;;3.70;3.25;;;;;;;;;;4954782;29;20540;-81
2022/05/06 03:32:51;;;;;;;3.30;3.00;;;;;;;;;;4923149;29;20082;-81
2022/05/06 03:35:17;;;;;;;4.38;3.92;;;;;;;;;;4922927;29;20034;-81
2022/05/06 03:37:44;;;;;;;3.72;3.30;;;;;;;;;;4907154;29;20031;-81
2022/05/06 03:40:10;;;;;;;3.70;3.40;;;;;;;;;;4954789;29;20038;-81
2022/05/06 03:42:35;;;;;;;3.35;3.05;;;;;;;;;;4938553;29;20391;-81
2022/05/06 03:45:03;;;;;;;4.40;3.70;;;;;;;;;;4954513;29;20402;-81
2022/05/06 03:47:28;;;;;;;3.92;3.28;;;;;;;;;;4938986;29;20031;-81
2022/05/06 03:52:37;;;;;;;3.72;3.22;;;;;;;;;;4956217;29;20504;-81
2022/05/06 03:55:03;;;;;;;3.47;2.95;;;;;;;;;;4922547;29;20039;-80
2022/05/06 03:57:28;;;;;;;3.63;3.05;;;;;;;;;;4938406;29;20035;-81
2022/05/06 03:59:54;;;;;;;3.72;3.15;;;;;;;;;;4938092;29;20027;-81
2022/05/06 04:02:20;;;;;;;3.90;3.30;;;;;;;;;;4938252;29;20039;-81
2022/05/06 04:04:45;;;;;;;3.63;3.10;;;;;;;;;;4922567;29;20447;-81
2022/05/06 04:07:11;;;;;;;3.55;3.00;;;;;;;;;;4922129;29;20125;-81
2022/05/06 04:09:36;;;;;;;3.03;2.72;;;;;;;;;;4937712;29;20086;-81
2022/05/06 04:12:03;;;;;;;3.72;2.97;;;;;;;;;;4937968;29;20027;-80
2022/05/06 04:14:29;;;;;;;3.40;3.10;;;;;;;;;;4906635;29;20159;-80
2022/05/06 04:16:54;;;;;;;3.72;2.78;;;;;;;;;;4922247;29;20066;-80
2022/05/06 04:19:20;;;;;;;3.40;2.83;;;;;;;;;;4922343;29;20104;-80
2022/05/06 04:24:29;;;;;;;5.07;2.70;;;;;;;;;;4940638;29;20034;-80
2022/05/06 04:26:54;;;;;;;2.53;2.30;;;;;;;;;;4953807;29;20039;-80
2022/05/06 04:29:19;;;;;;;2.80;2.40;;;;;;;;;;4921910;29;20038;-80
2022/05/06 04:31:45;;;;;;;2.42;2.22;;;;;;;;;;4921583;29;20036;-80
2022/05/06 04:34:10;;;;;;;2.90;2.50;;;;;;;;;;4921413;29;20079;-80
2022/05/06 04:36:40;;;;;;;4.03;2.58;;;;;;;;;;4954934;29;20046;-80
2022/05/06 04:39:06;;;;;;;2.42;2.22;;;;;;;;;;4937867;29;20027;-80
2022/05/06 04:41:31;;;;;;;2.22;1.98;;;;;;;;;;4921760;29;20050;-80
2022/05/06 04:43:57;;;;;;;2.20;2.00;;;;;;;;;;4953579;29;20031;-79
2022/05/06 04:46:22;;;;;;;2.58;2.35;;;;;;;;;;4937029;29;20430;-80
2022/05/06 04:48:48;;;;;;;2.35;2.10;;;;;;;;;;4953541;29;20043;-80
2022/05/06 04:51:13;;;;;;;2.72;2.38;;;;;;;;;;4936907;29;20031;-80
2022/05/06 04:53:38;;;;;;;2.35;1.98;;;;;;;;;;4937217;29;20389;-80
2022/05/06 04:56:04;;;;;;;2.10;1.90;;;;;;;;;;4937191;29;20035;-80
2022/05/06 04:58:29;;;;;;;2.05;1.92;;;;;;;;;;4920967;29;20027;-81
2022/05/06 05:00:55;;;;;;;1.52;1.42;;;;;;;;;;4943574;29;20051;-81
2022/05/06 05:03:21;;;;;;;1.95;1.85;;;;;;;;;;4936705;29;20035;-81
2022/05/06 05:05:48;;;;;;;2.38;2.15;;;;;;;;;;4953988;28;20038;-81
2022/05/06 05:08:13;;;;;;;2.88;2.03;;;;;;;;;;4952489;29;20106;-81
2022/05/06 05:10:38;;;;;;;2.08;1.60;;;;;;;;;;4952754;29;20118;-81
2022/05/06 05:13:04;;;;;;;2.42;1.98;;;;;;;;;;4953936;29;20346;-81
2022/05/06 05:15:30;;;;;;;2.15;1.95;;;;;;;;;;4953884;29;20031;-81
2022/05/06 05:17:55;;;;;;;1.83;1.73;;;;;;;;;;4952616;29;20106;-81
2022/05/06 05:20:20;;;;;;;2.65;1.90;;;;;;;;;;4935668;29;20474;-81
2022/05/06 05:22:46;;;;;;;2.05;1.77;;;;;;;;;;4953730;29;20033;-81
2022/05/06 05:25:12;;;;;;;2.17;1.98;;;;;;;;;;4968270;28;20043;-81
2022/05/06 05:27:38;;;;;;;2.30;2.10;;;;;;;;;;4952306;28;20023;-81
2022/05/06 05:30:05;;;;;;;2.47;2.28;;;;;;;;;;4952082;29;20461;-81
2022/05/06 05:32:32;;;;;;;1.42;1.33;;;;;;;;;;4952224;29;20035;-81
2022/05/06 05:34:58;;;;;;;1.83;1.73;;;;;;;;;;4952280;28;20034;-81
2022/05/06 05:37:23;;;;;;;1.83;1.73;;;;;;;;;;4952143;29;20118;-81
2022/05/06 05:39:49;;;;;;;1.88;1.60;;;;;;;;;;4936193;29;20114;-81
2022/05/06 05:42:27;;;;;;;1.70;1.60;;;;;;;;;;4951921;29;20497;-81
2022/05/06 05:50:21;;;;;;;1.70;1.60;;;;;;;;;;4938653;29;20038;-81
2022/05/06 05:52:46;;;;;;;1.75;1.65;;;;;;;;;;4952019;29;20039;-81
2022/05/06 05:55:12;;;;;;;4.05;1.83;;;;;;;;;;4951680;29;20070;-81
2022/05/06 05:57:38;;;;;;;2.30;2.00;;;;;;;;;;4968264;28;20066;-81
2022/05/06 06:00:05;;;;;;;2.10;1.90;;;;;;;;;;4953099;29;20055;-81
2022/05/06 06:02:31;;;;;;;2.17;1.42;;;;;;;;;;4953342;29;20106;-81
2022/05/06 06:04:57;;;;;;;2.13;1.92;;;;;;;;;;4936222;28;20042;-82
2022/05/06 06:07:23;;;;;;;2.80;1.33;;;;;;;;;;4952150;29;20023;-81
2022/05/06 06:09:48;;;;;;;1.40;1.30;;;;;;;;;;4952361;28;20035;-82
2022/05/06 06:12:13;;;;;;;1.75;1.42;;;;;;;;;;4952153;29;20066;-81
2022/05/06 06:14:40;;;;;;;1.38;1.27;;;;;;;;;;4951944;29;20450;-81
2022/05/06 06:17:05;;;;;;;1.77;1.67;;;;;;;;;;4952134;28;20443;-81
2022/05/06 06:19:31;;;;;;;1.20;1.10;;;;;;;;;;4952150;29;20105;-81
2022/05/06 06:21:56;;;;;;;1.83;1.73;;;;;;;;;;4935874;29;20442;-81
2022/05/06 06:24:21;;;;;;;2.05;1.77;;;;;;;;;;4953277;29;20039;-81
2022/05/06 06:26:47;;;;;;;1.50;1.40;;;;;;;;;;4951766;29;20065;-82
2022/05/06 06:29:12;;;;;;;1.77;1.67;;;;;;;;;;4967709;28;20457;-79
2022/05/06 06:31:38;;;;;;;1.90;1.70;;;;;;;;;;4954548;28;20031;-82
2022/05/06 06:34:04;;;;;;;1.98;1.77;;;;;;;;;;4939790;29;20037;-82
2022/05/06 06:36:29;;;;;;;1.95;1.58;;;;;;;;;;4955599;29;20030;-80
2022/05/06 06:38:55;;;;;;;1.60;1.50;;;;;;;;;;4955497;29;20390;-82
2022/05/06 06:41:20;;;;;;;1.40;1.30;;;;;;;;;;4955462;29;20141;-81
2022/05/06 06:43:49;;;;;;;2.17;1.98;;;;;;;;;;4939553;29;20343;-81
2022/05/06 06:46:15;;;;;;;2.20;1.98;;;;;;;;;;4955457;29;20038;-80
2022/05/06 06:48:41;;;;;;;2.40;2.08;;;;;;;;;;4939301;29;20378;-81
2022/05/06 06:51:07;;;;;;;2.55;1.98;;;;;;;;;;4955250;29;20067;-80
2022/05/06 06:53:33;;;;;;;2.47;2.00;;;;;;;;;;4956515;29;20039;-80
2022/05/06 06:55:58;;;;;;;2.63;1.92;;;;;;;;;;4956418;29;20035;-80
2022/05/06 06:58:25;;;;;;;2.08;1.90;;;;;;;;;;4939077;29;20031;-80
2022/05/06 07:00:51;;;;;;;1.70;1.58;;;;;;;;;;4948588;29;20051;-80
2022/05/06 07:03:17;;;;;;;1.52;1.42;;;;;;;;;;4939203;29;20435;-80
2022/05/06 07:11:52;;;;;;;3.10;1.40;;;;;;;;;;4939421;29;20121;-80
2022/05/06 07:13:56;;;;;;;2.38;2.17;;;;;;;;;;4928317;29;20473;-80
2022/05/06 07:16:22;;;;;;;2.58;2.30;;;;;;;;;;4955332;29;20039;-81
2022/05/06 07:18:48;;;;;;;2.30;2.10;;;;;;;;;;4923585;29;20061;-80
2022/05/06 07:21:14;;;;;;;2.85;2.20;;;;;;;;;;4923661;29;20046;-79
2022/05/06 07:23:39;;;;;;;2.53;2.15;;;;;;;;;;4941789;29;20035;-80
2022/05/06 07:26:05;;;;;;;1.70;1.60;;;;;;;;;;4924697;29;20059;-80
2022/05/06 07:28:30;;;;;;;3.15;1.73;;;;;;;;;;4941042;29;20405;-80
2022/05/06 07:30:55;;;;;;;2.72;2.28;;;;;;;;;;4958356;29;20034;-80
2022/05/06 07:33:21;;;;;;;3.08;2.38;;;;;;;;;;4925102;29;20039;-80
2022/05/06 07:35:46;;;;;;;2.60;2.33;;;;;;;;;;4940357;29;20433;-81
2022/05/06 07:38:11;;;;;;;2.80;2.33;;;;;;;;;;4940649;29;20034;-81
2022/05/06 07:40:37;;;;;;;3.35;2.28;;;;;;;;;;4924794;29;20027;-80
2022/05/06 07:43:02;;;;;;;2.80;2.42;;;;;;;;;;4956326;28;20177;-81
2022/05/06 07:45:28;;;;;;;3.22;2.70;;;;;;;;;;4942127;29;20038;-81
2022/05/06 07:47:53;;;;;;;1.98;1.77;;;;;;;;;;4954868;29;20035;-80
2022/05/06 07:50:19;;;;;;;1.70;1.60;;;;;;;;;;4956058;29;20549;-81
2022/05/06 07:52:44;;;;;;;2.10;1.90;;;;;;;;;;4956390;29;20409;-81
2022/05/06 07:55:13;;;;;;;1.73;1.63;;;;;;;;;;4954411;29;20035;-81
2022/05/06 07:57:39;;;;;;;5.32;2.42;;;;;;;;;;4944194;29;20032;-81
2022/05/06 08:00:05;;;;;;;2.55;1.90;;;;;;;;;;4949598;29;20075;-81
2022/05/06 08:05:14;;;;;;;2.92;2.15;;;;;;;;;;4954430;28;20042;-80
2022/05/06 08:07:40;;;;;;;3.55;2.42;;;;;;;;;;4971330;28;20394;-81
2022/05/06 08:10:06;;;;;;;3.60;2.70;;;;;;;;;;4938492;29;20176;-81
2022/05/06 08:12:32;;;;;;;1.90;1.80;;;;;;;;;;4954033;28;20035;-81
2022/05/06 08:14:58;;;;;;;3.05;2.28;;;;;;;;;;4953657;29;20453;-81
2022/05/06 08:17:23;;;;;;;2.22;1.80;;;;;;;;;;4953850;29;20039;-81
2022/05/06 08:19:49;;;;;;;2.28;1.90;;;;;;;;;;4953815;29;20134;-81
2022/05/06 08:22:14;;;;;;;3.25;2.72;;;;;;;;;;4937580;28;20035;-81
2022/05/06 08:24:41;;;;;;;3.53;2.60;;;;;;;;;;4955017;29;20490;-81
2022/05/06 08:27:07;;;;;;;2.55;2.35;;;;;;;;;;4969328;28;20031;-80
2022/05/06 08:29:33;;;;;;;3.80;2.45;;;;;;;;;;4969492;28;20034;-80
2022/05/06 08:31:58;;;;;;;2.70;2.33;;;;;;;;;;4969716;28;20035;-80
2022/05/06 08:34:24;;;;;;;3.03;2.65;;;;;;;;;;4953301;29;20370;-81
2022/05/06 08:36:50;;;;;;;2.45;2.03;;;;;;;;;;4954650;29;20156;-80
2022/05/06 08:39:16;;;;;;;2.88;1.73;;;;;;;;;;4937281;29;20458;-79
2022/05/06 08:41:41;;;;;;;4.22;2.47;;;;;;;;;;4954605;29;20055;-79
2022/05/06 08:52:31;;;;;;;2.03;1.83;;;;;;;;;;4939885;29;20046;-80
2022/05/06 08:54:57;;;;;;;1.83;1.70;;;;;;;;;;4951611;28;20027;-81
2022/05/06 08:57:23;;;;;;;1.80;1.70;;;;;;;;;;4936562;29;20038;-81
2022/05/06 08:59:52;;;;;;;2.63;2.40;;;;;;;;;;4968390;28;20481;-82
2022/05/06 09:02:19;;;;;;;2.30;1.75;;;;;;;;;;4952253;29;20549;-81
2022/05/06 09:04:44;;;;;;;1.83;1.63;;;;;;;;;;4952004;29;20114;-81
2022/05/06 09:07:19;;;;;;;1.50;1.40;;;;;;;;;;4952084;28;20121;-81
2022/05/06 09:10:05;;;;;;;1.70;1.60;;;;;;;;;;4936835;29;20050;-81
2022/05/06 09:12:42;;;;;;;3.78;2.05;;;;;;;;;;4952000;29;20110;-81
2022/05/06 09:17:54;;;;;;;1.77;1.67;;;;;;;;;;4952806;29;20128;-81
2022/05/06 09:20:23;;;;;;;1.98;1.75;;;;;;;;;;4952242;29;20169;-81
2022/05/06 09:22:51;;;;;;;2.30;2.03;;;;;;;;;;4952336;29;20035;-81
2022/05/06 09:25:35;;;;;;;2.05;1.90;;;;;;;;;;4938056;29;20454;-85
2022/05/06 09:28:02;;;;;;;1.45;1.35;;;;;;;;;;4956727;29;20019;-83
2022/05/06 09:30:27;;;;;;;1.90;1.70;;;;;;;;;;4955933;29;20020;-84
2022/05/06 09:32:53;;;;;;;3.15;2.05;;;;;;;;;;4957394;29;20050;-82
2022/05/06 09:35:19;;;;;;;4.72;1.90;;;;;;;;;;4940615;29;20027;-84
2022/05/06 09:37:47;;;;;;;1.77;1.60;;;;;;;;;;4940812;29;20024;-85
2022/05/06 09:40:28;;;;;;;4.10;1.60;;;;;;;;;;4955833;29;20385;-85
2022/05/06 09:43:00;;;;;;;4.43;1.63;;;;;;;;;;4954095;29;20039;-85
2022/05/06 09:45:39;;;;;;;1.90;1.48;;;;;;;;;;4952644;29;20102;-80
2022/05/06 09:48:06;;;;;;;2.55;1.60;;;;;;;;;;4952772;29;20074;-80
2022/05/06 09:50:34;;;;;;;3.38;1.80;;;;;;;;;;4953911;29;20023;-82
2022/05/06 09:53:04;;;;;;;4.55;1.60;;;;;;;;;;4953421;29;20336;-81
2022/05/06 09:55:30;;;;;;;5.30;2.00;;;;;;;;;;4937084;29;20362;-85
2022/05/06 09:57:57;;;;;;;2.80;1.70;;;;;;;;;;4953609;28;20024;-85
2022/05/06 10:00:22;;;;;;;7.38;1.90;;;;;;;;;;4951920;28;20458;-85
2022/05/06 10:02:48;;;;;;;3.45;1.92;;;;;;;;;;4951620;29;20035;-85
2022/05/06 10:05:13;;;;;;;2.22;2.00;;;;;;;;;;4951604;28;20083;-85
2022/05/06 10:07:42;;;;;;;7.63;2.22;;;;;;;;;;4955588;28;20027;-85
2022/05/06 10:10:12;;;;;;;2.85;2.38;;;;;;;;;;4956354;29;20079;-84
2022/05/06 10:12:39;;;;;;;5.65;2.30;;;;;;;;;;4955779;29;20110;-82
2022/05/06 10:15:08;;;;;;;3.00;2.40;;;;;;;;;;4956992;29;20114;-83
2022/05/06 10:17:50;;;;;;;4.45;2.40;;;;;;;;;;4957457;29;20094;-83
2022/05/06 10:20:34;;;;;;;3.85;2.70;;;;;;;;;;4955492;29;20078;-81
2022/05/06 10:23:02;;;;;;;3.38;2.75;;;;;;;;;;4957092;29;20372;-79
2022/05/06 10:25:43;;;;;;;5.20;2.90;;;;;;;;;;4940183;29;20031;-78
2022/05/06 10:34:09;;;;;;;3.33;2.00;;;;;;;;;;4956865;29;20113;-79
2022/05/06 10:36:48;;;;;;;4.82;2.42;;;;;;;;;;4956543;29;20054;-78
2022/05/06 10:39:21;;;;;;;3.45;2.30;;;;;;;;;;4955257;29;20031;-79
2022/05/06 10:42:05;;;;;;;4.35;2.22;;;;;;;;;;4923488;29;20031;-80
2022/05/06 10:44:54;;;;;;;2.85;2.25;;;;;;;;;;4955246;29;20054;-80
2022/05/06 10:47:19;;;;;;;6.25;2.00;;;;;;;;;;4944826;29;20051;-81
2022/05/06 10:49:52;;;;;;;6.22;2.15;;;;;;;;;;4956506;29;20029;-80
2022/05/06 10:52:22;;;;;;;4.28;2.22;;;;;;;;;;4939649;29;20090;-82
2022/05/06 10:54:55;;;;;;;2.28;2.03;;;;;;;;;;4956772;29;20045;-81
2022/05/06 10:57:22;;;;;;;5.18;2.10;;;;;;;;;;4955563;28;20038;-81
2022/05/06 10:59:58;;;;;;;3.53;2.03;;;;;;;;;;4955040;29;20035;-85
2022/05/06 11:02:30;;;;;;;2.90;2.15;;;;;;;;;;4955056;29;20110;-80
2022/05/06 11:05:04;;;;;;;3.78;2.05;;;;;;;;;;4954758;28;20110;-80
2022/05/06 11:07:31;;;;;;;2.00;1.80;;;;;;;;;;4954789;29;20031;-83
2022/05/06 11:09:57;;;;;;;1.63;1.40;;;;;;;;;;4954754;29;20054;-83
2022/05/06 11:12:44;;;;;;;10.45;1.80;;;;;;;;;;4954852;29;20082;-83
2022/05/06 11:15:13;;;;;;;2.42;1.98;;;;;;;;;;4955999;29;20063;-82
2022/05/06 11:17:38;;;;;;;3.13;1.58;;;;;;;;;;4953893;28;20039;-81
2022/05/06 11:20:42;;;;;;;2.30;1.55;;;;;;;;;;4955796;29;20058;-81
2022/05/06 11:23:13;;;;;;;7.57;1.85;;;;;;;;;;4955920;29;20027;-81
2022/05/06 11:25:50;;;;;;;4.13;1.48;;;;;;;;;;4938944;28;20028;-80
2022/05/06 11:28:21;;;;;;;1.52;1.42;;;;;;;;;;4954494;28;20050;-80
2022/05/06 11:30:51;;;;;;;2.10;1.63;;;;;;;;;;4954246;29;20099;-80
2022/05/06 11:33:31;;;;;;;3.00;1.60;;;;;;;;;;4955641;29;20122;-79
2022/05/06 11:36:07;;;;;;;1.60;1.50;;;;;;;;;;4970163;28;20031;-82
2022/05/06 11:38:33;;;;;;;1.73;1.30;;;;;;;;;;4954176;29;20366;-82
2022/05/06 11:41:09;;;;;;;1.80;1.52;;;;;;;;;;4954234;29;20055;-81
2022/05/06 11:43:34;;;;;;;1.90;1.65;;;;;;;;;;4938212;29;20379;-81
2022/05/06 11:48:45;;;;;;;3.40;1.65;;;;;;;;;;4954196;29;20050;-81
2022/05/06 11:51:24;;;;;;;2.50;1.40;;;;;;;;;;4955283;29;20027;-82
2022/05/06 11:53:50;;;;;;;3.42;1.35;;;;;;;;;;4953611;29;20035;-81
2022/05/06 11:56:21;;;;;;;1.30;1.20;;;;;;;;;;4953643;29;20042;-81
2022/05/06 11:58:46;;;;;;;1.30;1.20;;;;;;;;;;4953988;29;20027;-81
2022/05/06 12:01:11;;;;;;;2.95;1.63;;;;;;;;;;4937243;29;20366;-81
2022/05/06 12:03:38;;;;;;;2.17;1.83;;;;;;;;;;4953707;29;20118;-83
2022/05/06 12:06:06;;;;;;;1.40;1.30;;;;;;;;;;4953817;28;20035;-79
2022/05/06 12:08:33;;;;;;;1.70;1.25;;;;;;;;;;4953426;29;20023;-80
2022/05/06 12:11:06;;;;;;;1.58;1.10;;;;;;;;;;4953658;29;20042;-81
2022/05/06 12:13:40;;;;;;;2.17;1.45;;;;;;;;;;4953416;29;20043;-81
2022/05/06 12:16:13;;;;;;;2.70;1.10;;;;;;;;;;4953441;28;20131;-80
2022/05/06 12:18:52;;;;;;;2.75;1.42;;;;;;;;;;4954404;29;20509;-80
2022/05/06 12:21:19;;;;;;;2.45;1.30;;;;;;;;;;4953831;29;20035;-80
2022/05/06 12:23:58;;;;;;;1.63;1.40;;;;;;;;;;4954152;29;20450;-80
2022/05/06 12:26:37;;;;;;;3.97;1.35;;;;;;;;;;4953410;29;20090;-80
2022/05/06 12:29:17;;;;;;;1.40;1.30;;;;;;;;;;4953523;28;20515;-80
2022/05/06 12:31:42;;;;;;;3.47;1.35;;;;;;;;;;4953542;29;20050;-80
2022/05/06 12:34:08;;;;;;;2.58;1.30;;;;;;;;;;4953899;29;20061;-80
2022/05/06 12:36:35;;;;;;;2.50;1.40;;;;;;;;;;4954583;29;20031;-81
2022/05/06 12:39:00;;;;;;;1.30;1.20;;;;;;;;;;4952785;29;20027;-77
2022/05/06 12:41:33;;;;;;;2.28;1.30;;;;;;;;;;4936607;29;20037;-79
2022/05/06 12:44:16;;;;;;;4.57;1.38;;;;;;;;;;4952843;29;20029;-79
2022/05/06 12:46:42;;;;;;;1.25;1.05;;;;;;;;;;4954429;29;20035;-77
2022/05/06 12:51:52;;;;;;;2.97;1.55;;;;;;;;;;4954453;29;20183;-79
2022/05/06 12:54:17;;;;;;;5.93;1.58;;;;;;;;;;4937066;29;20068;-79
2022/05/06 12:56:43;;;;;;;1.67;1.55;;;;;;;;;;4953033;29;20035;-78
2022/05/06 12:59:09;;;;;;;2.28;1.50;;;;;;;;;;4954113;29;20059;-78
2022/05/06 13:01:35;;;;;;;2.17;1.52;;;;;;;;;;4936147;29;20570;-78
2022/05/06 13:04:01;;;;;;;1.88;1.50;;;;;;;;;;4952480;29;20094;-78
2022/05/06 13:06:26;;;;;;;4.97;1.40;;;;;;;;;;4952558;28;20023;-78
2022/05/06 13:08:52;;;;;;;2.60;1.50;;;;;;;;;;4952010;28;20050;-78
2022/05/06 13:11:17;;;;;;;2.17;1.50;;;;;;;;;;4935914;29;20077;-78
2022/05/06 13:13:43;;;;;;;2.38;1.33;;;;;;;;;;4936138;29;20037;-77
2022/05/06 13:16:09;;;;;;;1.58;1.25;;;;;;;;;;4936219;29;20038;-78
2022/05/06 13:18:35;;;;;;;4.20;1.67;;;;;;;;;;4952302;28;20418;-78
2022/05/06 13:21:00;;;;;;;2.33;1.85;;;;;;;;;;4952344;28;20085;-77
2022/05/06 13:23:25;;;;;;;1.92;1.48;;;;;;;;;;4936355;29;20034;-78
2022/05/06 13:25:51;;;;;;;2.70;1.50;;;;;;;;;;4968521;28;20455;-80
2022/05/06 13:28:16;;;;;;;2.75;1.50;;;;;;;;;;4936557;29;20166;-79
2022/05/06 13:30:42;;;;;;;2.25;1.40;;;;;;;;;;4952771;29;20035;-78
2022/05/06 13:33:07;;;;;;;5.05;1.80;;;;;;;;;;4953449;29;20035;-77
2022/05/06 13:35:33;;;;;;;1.98;1.70;;;;;;;;;;4952068;29;20027;-79
2022/05/06 13:37:59;;;;;;;1.77;1.60;;;;;;;;;;4936458;29;20034;-78
2022/05/06 13:40:25;;;;;;;2.25;1.63;;;;;;;;;;4951775;28;20111;-79
2022/05/06 13:42:51;;;;;;;2.45;1.60;;;;;;;;;;4952070;29;20051;-78
2022/05/06 13:45:16;;;;;;;2.30;1.70;;;;;;;;;;4936170;29;20391;-79
2022/05/06 13:47:41;;;;;;;2.35;1.65;;;;;;;;;;4935725;29;20133;-78
2022/05/06 13:50:08;;;;;;;3.05;1.60;;;;;;;;;;4951355;29;20062;-79
2022/05/06 13:52:33;;;;;;;2.10;1.70;;;;;;;;;;4951999;29;20027;-79
2022/05/06 13:55:05;;;;;;;2.10;1.75;;;;;;;;;;4953170;29;20340;-79
2022/05/06 14:00:26;;;;;;;2.53;1.60;;;;;;;;;;4952467;28;20070;-78
2022/05/06 14:02:55;;;;;;;2.13;1.50;;;;;;;;;;4953225;29;20039;-79
2022/05/06 14:05:20;;;;;;;2.13;1.75;;;;;;;;;;4951887;28;20066;-78
2022/05/06 14:07:46;;;;;;;2.83;1.83;;;;;;;;;;4919937;29;20058;-79
2022/05/06 14:10:11;;;;;;;2.30;1.70;;;;;;;;;;4935888;29;20577;-79
2022/05/06 14:12:37;;;;;;;3.17;2.13;;;;;;;;;;4951706;29;20027;-79
2022/05/06 14:15:04;;;;;;;2.67;2.03;;;;;;;;;;4935685;29;20478;-81
2022/05/06 14:17:29;;;;;;;2.90;1.80;;;;;;;;;;4951873;29;20038;-80
2022/05/06 14:19:55;;;;;;;3.33;1.70;;;;;;;;;;4952786;29;20039;-79
2022/05/06 14:22:21;;;;;;;3.33;2.22;;;;;;;;;;4935528;29;20040;-81
2022/05/06 14:24:47;;;;;;;4.03;2.40;;;;;;;;;;4951622;29;20098;-80
2022/05/06 14:27:16;;;;;;;3.97;2.40;;;;;;;;;;4951347;29;20122;-79
2022/05/06 14:29:42;;;;;;;3.67;2.13;;;;;;;;;;4951420;29;20129;-77
2022/05/06 14:32:08;;;;;;;2.60;2.10;;;;;;;;;;4952842;29;20035;-79
2022/05/06 14:34:34;;;;;;;3.72;1.95;;;;;;;;;;4951557;29;20445;-80
2022/05/06 14:36:59;;;;;;;5.53;2.65;;;;;;;;;;4951217;29;20493;-79
2022/05/06 14:39:25;;;;;;;16.48;2.60;;;;;;;;;;4950642;29;20038;-80
2022/05/06 14:41:50;;;;;;;4.55;2.42;;;;;;;;;;4967450;28;20107;-79
2022/05/06 14:44:16;;;;;;;4.13;2.53;;;;;;;;;;4953231;29;20155;-79
2022/05/06 14:46:41;;;;;;;5.07;2.42;;;;;;;;;;4953343;29;20035;-79
2022/05/06 14:49:07;;;;;;;3.95;2.03;;;;;;;;;;4951662;29;20474;-80
2022/05/06 14:51:33;;;;;;;4.68;2.38;;;;;;;;;;4936311;29;20039;-79
2022/05/06 14:53:59;;;;;;;4.35;2.85;;;;;;;;;;4939801;28;20031;-80
2022/05/06 14:56:25;;;;;;;4.20;2.70;;;;;;;;;;4939909;29;20046;-80
2022/05/06 14:58:50;;;;;;;5.00;2.45;;;;;;;;;;4939678;28;20039;-79
2022/05/06 15:01:16;;;;;;;6.47;2.65;;;;;;;;;;4952612;29;20106;-80
2022/05/06 15:03:41;;;;;;;3.22;2.47;;;;;;;;;;4957420;29;20051;-79
2022/05/06 15:06:07;;;;;;;4.45;2.33;;;;;;;;;;4955565;28;20367;-79
2022/05/06 15:08:32;;;;;;;2.70;2.17;;;;;;;;;;4941076;29;20031;-80
2022/05/06 15:10:58;;;;;;;2.92;2.20;;;;;;;;;;4955685;29;20102;-79
2022/05/06 15:13:28;;;;;;;3.65;2.50;;;;;;;;;;4972000;28;20482;-79
2022/05/06 15:15:55;;;;;;;3.45;2.50;;;;;;;;;;4975796;28;20035;-79
2022/05/06 15:21:07;;;;;;;2.38;1.90;;;;;;;;;;4943707;29;20462;-80
2022/05/06 15:23:34;;;;;;;3.10;2.17;;;;;;;;;;4940313;29;20043;-80
2022/05/06 15:26:01;;;;;;;3.60;2.10;;;;;;;;;;4940543;28;20038;-79
2022/05/06 15:28:26;;;;;;;3.17;2.20;;;;;;;;;;4955858;29;20038;-80
2022/05/06 15:30:52;;;;;;;2.15;1.95;;;;;;;;;;4972078;28;20347;-80
2022/05/06 15:33:19;;;;;;;7.15;2.28;;;;;;;;;;4955692;29;20450;-81
2022/05/06 15:35:45;;;;;;;4.03;2.38;;;;;;;;;;4954835;29;20072;-79